Time;durP1;ratioP1;P1;durP2;ratioP2;P2;SDS_P1;SDS_P2;PMS_P1;PMS_P2;Temp;Humidity;BMP_temperature;BMP_pressure;BME280_temperature;BME280_humidity;BME280_pressure;Samples;Min_cycle;Max_cycle;Signal;HPM_P1;HPM_P2
2023/10/20 00:01:33;;;;;;;14.70;3.28;;;;;;;;;;5058005;28;20060;-46
2023/10/20 00:03:58;;;;;;;24.33;3.67;;;;;;;;;;5061710;28;20029;-44
2023/10/20 00:06:24;;;;;;;13.07;3.45;;;;;;;;;;5053614;28;20118;-45
2023/10/20 00:08:49;;;;;;;16.20;3.70;;;;;;;;;;5054981;28;20064;-48
2023/10/20 00:11:15;;;;;;;14.50;3.42;;;;;;;;;;5051299;28;20509;-49
2023/10/20 00:13:40;;;;;;;20.30;3.83;;;;;;;;;;5057848;28;20029;-51
2023/10/20 00:16:06;;;;;;;22.65;4.20;;;;;;;;;;5059972;28;20563;-45
2023/10/20 00:18:32;;;;;;;17.52;3.78;;;;;;;;;;5057744;28;20402;-48
2023/10/20 00:20:57;;;;;;;14.52;3.75;;;;;;;;;;5061487;28;20033;-51
2023/10/20 00:23:23;;;;;;;14.48;4.22;;;;;;;;;;5060152;28;20044;-47
2023/10/20 00:25:49;;;;;;;13.38;3.38;;;;;;;;;;5059900;28;20017;-45
2023/10/20 00:28:14;;;;;;;9.98;3.55;;;;;;;;;;5061550;28;20049;-51
2023/10/20 00:30:41;;;;;;;28.10;6.32;;;;;;;;;;5067726;28;20158;-49
2023/10/20 00:33:07;;;;;;;14.85;3.17;;;;;;;;;;5061980;28;20064;-49
2023/10/20 00:35:33;;;;;;;20.30;5.38;;;;;;;;;;5057518;28;20029;-47
2023/10/20 00:37:59;;;;;;;18.40;4.80;;;;;;;;;;5057415;28;20044;-46
2023/10/20 00:40:25;;;;;;;12.70;2.90;;;;;;;;;;5060817;28;20446;-47
2023/10/20 00:42:50;;;;;;;22.58;5.43;;;;;;;;;;5057323;28;20041;-51
2023/10/20 00:45:16;;;;;;;15.95;3.45;;;;;;;;;;5063745;28;20134;-46
2023/10/20 00:47:44;;;;;;;17.27;3.55;;;;;;;;;;5058274;28;20040;-48
2023/10/20 00:50:13;;;;;;;14.35;4.28;;;;;;;;;;5056742;28;20033;-51
2023/10/20 00:52:41;;;;;;;13.65;3.55;;;;;;;;;;5058455;28;20037;-47
2023/10/20 00:55:08;;;;;;;19.13;4.85;;;;;;;;;;5060709;28;20029;-45
2023/10/20 00:57:34;;;;;;;15.25;3.67;;;;;;;;;;5057386;28;20033;-49
2023/10/20 01:00:00;;;;;;;23.40;4.25;;;;;;;;;;5052618;28;20123;-48
2023/10/20 01:02:25;;;;;;;20.27;4.50;;;;;;;;;;5058827;28;20127;-45
2023/10/20 01:04:50;;;;;;;15.13;3.85;;;;;;;;;;5060572;28;20545;-49
2023/10/20 01:07:16;;;;;;;17.67;4.68;;;;;;;;;;5058064;28;20721;-47
2023/10/20 01:09:44;;;;;;;15.88;5.28;;;;;;;;;;5059832;28;20029;-47
2023/10/20 01:12:10;;;;;;;16.58;4.57;;;;;;;;;;5056403;28;20041;-46
2023/10/20 01:14:35;;;;;;;17.35;6.47;;;;;;;;;;5053596;28;20115;-47
2023/10/20 01:17:03;;;;;;;17.67;4.15;;;;;;;;;;5057319;28;20037;-49
2023/10/20 01:19:28;;;;;;;18.50;3.80;;;;;;;;;;5059491;28;20025;-46
2023/10/20 01:21:53;;;;;;;25.35;5.82;;;;;;;;;;5062904;28;20045;-50
2023/10/20 01:24:19;;;;;;;22.17;5.60;;;;;;;;;;5044869;28;20475;-48
2023/10/20 01:26:44;;;;;;;19.88;5.03;;;;;;;;;;5058543;28;20367;-47
2023/10/20 01:29:12;;;;;;;16.65;4.45;;;;;;;;;;5058444;28;20035;-47
2023/10/20 01:31:38;;;;;;;22.90;5.55;;;;;;;;;;5060054;28;20113;-46
2023/10/20 01:34:03;;;;;;;16.67;4.90;;;;;;;;;;5071688;28;20065;-48
2023/10/20 01:36:29;;;;;;;25.73;5.25;;;;;;;;;;5063876;28;20021;-48
2023/10/20 01:38:54;;;;;;;21.48;5.35;;;;;;;;;;5056572;28;20025;-49
2023/10/20 01:41:20;;;;;;;21.95;5.38;;;;;;;;;;5051065;28;20120;-48
2023/10/20 01:43:45;;;;;;;22.67;6.95;;;;;;;;;;5060765;28;20028;-44
2023/10/20 01:46:10;;;;;;;18.52;4.32;;;;;;;;;;5056446;28;20037;-50
2023/10/20 01:48:36;;;;;;;20.77;6.50;;;;;;;;;;5054912;28;20053;-48
2023/10/20 01:51:01;;;;;;;20.48;5.85;;;;;;;;;;5060506;28;20044;-47
2023/10/20 01:53:27;;;;;;;25.20;5.97;;;;;;;;;;5056255;28;20057;-47
2023/10/20 01:55:52;;;;;;;18.85;6.00;;;;;;;;;;5055148;28;20034;-47
2023/10/20 01:58:18;;;;;;;21.63;6.43;;;;;;;;;;5060344;28;20037;-45
2023/10/20 02:00:48;;;;;;;21.70;5.88;;;;;;;;;;5055602;28;20466;-45
2023/10/20 02:03:13;;;;;;;20.33;6.45;;;;;;;;;;5054277;28;20061;-47
2023/10/20 02:05:39;;;;;;;18.60;5.72;;;;;;;;;;5056693;28;20378;-46
2023/10/20 02:08:05;;;;;;;23.55;6.50;;;;;;;;;;5058468;28;20053;-47
2023/10/20 02:10:31;;;;;;;24.50;5.60;;;;;;;;;;5053764;28;20104;-45
2023/10/20 02:12:56;;;;;;;20.58;6.55;;;;;;;;;;5054376;28;20036;-47
2023/10/20 02:15:22;;;;;;;26.67;8.75;;;;;;;;;;5065810;28;20021;-47
2023/10/20 02:17:48;;;;;;;28.58;7.70;;;;;;;;;;5054580;28;20052;-48
2023/10/20 02:20:15;;;;;;;28.30;6.00;;;;;;;;;;5058854;28;20032;-46
2023/10/20 02:22:41;;;;;;;22.15;6.05;;;;;;;;;;5050067;28;20170;-46
2023/10/20 02:25:09;;;;;;;25.92;6.60;;;;;;;;;;5060833;28;20068;-46
2023/10/20 02:27:36;;;;;;;24.80;6.75;;;;;;;;;;5064557;28;20506;-50
2023/10/20 02:30:03;;;;;;;22.75;6.32;;;;;;;;;;5053652;28;20029;-48
2023/10/20 02:32:28;;;;;;;15.73;5.43;;;;;;;;;;5054742;28;20510;-48
2023/10/20 02:34:53;;;;;;;22.77;4.32;;;;;;;;;;5058916;28;20444;-47
2023/10/20 02:37:19;;;;;;;25.00;6.30;;;;;;;;;;5058474;28;20128;-47
2023/10/20 02:39:44;;;;;;;26.90;7.50;;;;;;;;;;5055313;28;20033;-48
2023/10/20 02:42:11;;;;;;;32.20;8.23;;;;;;;;;;5055593;28;20104;-48
2023/10/20 02:44:37;;;;;;;29.15;8.30;;;;;;;;;;5059451;28;20051;-51
2023/10/20 02:47:03;;;;;;;25.80;7.15;;;;;;;;;;5053102;28;20047;-47
2023/10/20 02:49:28;;;;;;;20.88;7.60;;;;;;;;;;5058847;28;20103;-47
2023/10/20 02:51:54;;;;;;;24.25;8.27;;;;;;;;;;5055514;28;20044;-49
2023/10/20 02:54:20;;;;;;;23.38;6.53;;;;;;;;;;5071372;28;20433;-47
2023/10/20 02:56:45;;;;;;;30.65;6.50;;;;;;;;;;5059822;28;20036;-45
2023/10/20 02:59:12;;;;;;;18.60;6.47;;;;;;;;;;5053686;28;20041;-48
2023/10/20 03:01:38;;;;;;;29.25;6.50;;;;;;;;;;5061109;28;20048;-46
2023/10/20 03:04:03;;;;;;;25.75;8.38;;;;;;;;;;5048991;28;20471;-47
2023/10/20 03:06:29;;;;;;;25.02;7.55;;;;;;;;;;5056164;28;20120;-45
2023/10/20 03:08:54;;;;;;;26.33;6.82;;;;;;;;;;5055578;28;20057;-47
2023/10/20 03:11:20;;;;;;;24.38;6.70;;;;;;;;;;5053134;28;20110;-47
2023/10/20 03:13:45;;;;;;;21.95;7.40;;;;;;;;;;5054620;28;20057;-49
2023/10/20 03:16:11;;;;;;;26.67;6.28;;;;;;;;;;5061801;28;20027;-47
2023/10/20 03:18:36;;;;;;;28.48;7.15;;;;;;;;;;5054311;28;20086;-46
2023/10/20 03:21:02;;;;;;;24.70;7.50;;;;;;;;;;5056167;28;20040;-48
2023/10/20 03:23:28;;;;;;;30.48;6.53;;;;;;;;;;5052942;28;20037;-49
2023/10/20 03:25:54;;;;;;;34.25;9.80;;;;;;;;;;5054172;28;20539;-49
2023/10/20 03:28:19;;;;;;;31.10;9.23;;;;;;;;;;5054408;28;20041;-49
2023/10/20 03:30:46;;;;;;;27.25;7.20;;;;;;;;;;5055546;28;20108;-46
2023/10/20 03:33:13;;;;;;;27.33;5.65;;;;;;;;;;5062321;28;20036;-47
2023/10/20 03:35:39;;;;;;;30.30;6.80;;;;;;;;;;5055560;28;20508;-48
2023/10/20 03:38:09;;;;;;;29.75;7.15;;;;;;;;;;5056161;28;20044;-47
2023/10/20 03:40:38;;;;;;;26.38;6.40;;;;;;;;;;5052610;28;20554;-47
2023/10/20 03:43:05;;;;;;;35.20;5.68;;;;;;;;;;5055314;28;20048;-47
2023/10/20 03:45:39;;;;;;;21.73;4.75;;;;;;;;;;5055506;28;20549;-46
2023/10/20 03:48:05;;;;;;;26.60;5.30;;;;;;;;;;5057558;28;20048;-46
2023/10/20 03:50:35;;;;;;;19.48;3.75;;;;;;;;;;5051881;28;20029;-47
2023/10/20 03:53:01;;;;;;;20.70;4.10;;;;;;;;;;5058430;28;20037;-47
2023/10/20 03:55:26;;;;;;;13.55;2.70;;;;;;;;;;5060392;28;20617;-45
2023/10/20 03:57:52;;;;;;;13.50;2.13;;;;;;;;;;5059027;28;20086;-48
2023/10/20 04:00:29;;;;;;;16.58;2.65;;;;;;;;;;5060697;28;20045;-49
2023/10/20 04:02:58;;;;;;;16.60;4.28;;;;;;;;;;5058532;28;20108;-51
2023/10/20 04:05:25;;;;;;;18.52;2.45;;;;;;;;;;5066430;28;20063;-47
2023/10/20 04:07:51;;;;;;;15.40;3.38;;;;;;;;;;5054331;28;20517;-47
2023/10/20 04:10:19;;;;;;;11.63;2.67;;;;;;;;;;5044980;28;20021;-46
2023/10/20 04:12:45;;;;;;;17.05;3.33;;;;;;;;;;5052924;28;20038;-49
2023/10/20 04:15:15;;;;;;;20.58;3.22;;;;;;;;;;5058140;28;20044;-45
2023/10/20 04:17:44;;;;;;;16.45;3.97;;;;;;;;;;5057838;28;20080;-44
2023/10/20 04:20:15;;;;;;;12.07;3.90;;;;;;;;;;5062455;28;20080;-46
2023/10/20 04:22:49;;;;;;;15.00;2.80;;;;;;;;;;5066111;28;20049;-46
2023/10/20 04:25:23;;;;;;;14.93;2.90;;;;;;;;;;5050821;28;20218;-48
2023/10/20 04:27:57;;;;;;;13.55;3.17;;;;;;;;;;5059441;28;20083;-47
2023/10/20 05:07:57;;;;;;;13.75;1.88;;;;;;;;;;5052381;28;20120;-49
2023/10/20 05:10:23;;;;;;;10.30;1.73;;;;;;;;;;5052842;28;20040;-49
2023/10/20 05:12:49;;;;;;;7.22;1.73;;;;;;;;;;5064733;28;20058;-50
2023/10/20 05:15:15;;;;;;;10.52;1.73;;;;;;;;;;5053417;28;20483;-47
2023/10/20 05:17:41;;;;;;;12.90;1.17;;;;;;;;;;5053827;28;20041;-46
2023/10/20 05:20:12;;;;;;;11.75;1.98;;;;;;;;;;5054657;28;20036;-47
2023/10/20 05:22:39;;;;;;;12.40;1.88;;;;;;;;;;5059876;28;20044;-49
2023/10/20 05:25:06;;;;;;;14.13;2.40;;;;;;;;;;5055240;28;20083;-50
2023/10/20 05:27:32;;;;;;;10.05;2.53;;;;;;;;;;5070758;28;20448;-48
2023/10/20 05:29:57;;;;;;;14.68;3.45;;;;;;;;;;5053472;28;20024;-49
2023/10/20 05:32:22;;;;;;;9.02;2.42;;;;;;;;;;5055674;28;20380;-50
2023/10/20 05:34:50;;;;;;;13.50;2.30;;;;;;;;;;5054027;28;20429;-48
2023/10/20 05:37:15;;;;;;;12.80;2.92;;;;;;;;;;5054339;28;20507;-48
2023/10/20 05:39:40;;;;;;;16.98;1.98;;;;;;;;;;5059268;28;20123;-48
2023/10/20 05:42:06;;;;;;;15.93;2.70;;;;;;;;;;5053799;28;20142;-50
2023/10/20 05:44:32;;;;;;;12.98;2.30;;;;;;;;;;5057069;28;20028;-51
2023/10/20 05:46:57;;;;;;;18.73;2.78;;;;;;;;;;5047874;28;20403;-48
2023/10/20 05:49:23;;;;;;;12.02;2.92;;;;;;;;;;5051053;28;20017;-47
2023/10/20 05:51:51;;;;;;;21.38;5.07;;;;;;;;;;5054644;28;20066;-48
2023/10/20 05:54:19;;;;;;;10.07;2.53;;;;;;;;;;5056778;28;20103;-45
2023/10/20 05:56:45;;;;;;;14.55;3.53;;;;;;;;;;5055454;28;20041;-45
2023/10/20 05:59:10;;;;;;;16.13;4.35;;;;;;;;;;5057887;28;20466;-46
2023/10/20 06:01:36;;;;;;;16.63;2.30;;;;;;;;;;5058153;28;20547;-44
2023/10/20 06:04:03;;;;;;;14.63;2.67;;;;;;;;;;5058951;28;20043;-45
2023/10/20 06:06:31;;;;;;;12.68;2.28;;;;;;;;;;5056271;28;20024;-45
2023/10/20 06:08:56;;;;;;;10.68;2.90;;;;;;;;;;5059714;28;20088;-44
2023/10/20 06:11:22;;;;;;;7.75;1.88;;;;;;;;;;5062675;28;20035;-49
2023/10/20 06:13:47;;;;;;;7.28;2.35;;;;;;;;;;5056886;28;20045;-49
2023/10/20 06:16:12;;;;;;;10.15;1.42;;;;;;;;;;5049351;28;20086;-52
2023/10/20 06:18:39;;;;;;;10.52;1.65;;;;;;;;;;5052249;28;20052;-51
2023/10/20 06:21:06;;;;;;;8.55;1.38;;;;;;;;;;5050086;28;20088;-48
2023/10/20 06:23:32;;;;;;;10.82;1.98;;;;;;;;;;5046878;28;20033;-46
2023/10/20 06:25:58;;;;;;;10.70;2.00;;;;;;;;;;5055880;28;20035;-49
2023/10/20 06:28:24;;;;;;;12.43;1.45;;;;;;;;;;5047782;28;20493;-49
2023/10/20 06:30:50;;;;;;;11.88;2.80;;;;;;;;;;5046991;28;20021;-50
2023/10/20 06:33:17;;;;;;;12.18;3.45;;;;;;;;;;5047332;28;20037;-47
2023/10/20 06:35:52;;;;;;;9.90;1.85;;;;;;;;;;5048030;28;20060;-51
2023/10/20 06:38:36;;;;;;;10.75;2.40;;;;;;;;;;5057311;28;20036;-51
2023/10/20 06:41:03;;;;;;;8.98;2.05;;;;;;;;;;5054962;28;20441;-49
2023/10/20 06:43:29;;;;;;;9.18;2.22;;;;;;;;;;5058789;28;20045;-47
2023/10/20 06:45:59;;;;;;;10.73;2.85;;;;;;;;;;5064763;28;20475;-46
2023/10/20 06:48:26;;;;;;;8.68;1.98;;;;;;;;;;5044708;28;20038;-48
2023/10/20 06:50:52;;;;;;;15.15;2.50;;;;;;;;;;5055550;28;20108;-50
2023/10/20 06:53:17;;;;;;;8.93;1.35;;;;;;;;;;5055196;28;20056;-47
2023/10/20 06:55:43;;;;;;;8.70;2.08;;;;;;;;;;5060445;28;20033;-53
2023/10/20 06:58:12;;;;;;;8.70;1.35;;;;;;;;;;5059291;28;20036;-49
2023/10/20 07:00:37;;;;;;;7.47;1.17;;;;;;;;;;5057562;28;20025;-48
2023/10/20 07:03:03;;;;;;;12.38;1.20;;;;;;;;;;5059001;28;20055;-50
2023/10/20 07:05:28;;;;;;;6.43;1.17;;;;;;;;;;5053196;28;20103;-47
2023/10/20 07:07:54;;;;;;;7.40;1.35;;;;;;;;;;5056315;28;20125;-48
2023/10/20 07:10:22;;;;;;;6.03;1.70;;;;;;;;;;5054883;28;20667;-49
2023/10/20 07:12:48;;;;;;;6.95;1.38;;;;;;;;;;5055403;28;20048;-50
2023/10/20 07:15:16;;;;;;;9.90;1.48;;;;;;;;;;5044025;28;20029;-49
2023/10/20 07:17:41;;;;;;;6.88;2.05;;;;;;;;;;5050862;28;20405;-51
2023/10/20 07:20:07;;;;;;;6.38;1.27;;;;;;;;;;5059928;28;20025;-51
2023/10/20 07:22:33;;;;;;;10.90;2.05;;;;;;;;;;5055789;28;20551;-49
2023/10/20 07:24:58;;;;;;;8.18;1.88;;;;;;;;;;5057498;28;20037;-49
2023/10/20 07:27:25;;;;;;;7.65;2.17;;;;;;;;;;5047700;28;20036;-50
2023/10/20 07:29:50;;;;;;;8.30;2.05;;;;;;;;;;5060136;28;20017;-51
2023/10/20 07:32:17;;;;;;;9.68;2.05;;;;;;;;;;5060244;28;20584;-51
2023/10/20 07:34:42;;;;;;;10.05;1.55;;;;;;;;;;5060637;28;20043;-52
2023/10/20 07:37:08;;;;;;;6.30;1.33;;;;;;;;;;5064277;28;20371;-49
2023/10/20 07:39:34;;;;;;;6.38;0.93;;;;;;;;;;5051193;28;20525;-51
2023/10/20 07:42:00;;;;;;;7.72;2.53;;;;;;;;;;5060665;28;20521;-50
2023/10/20 07:44:25;;;;;;;7.10;1.05;;;;;;;;;;5061141;28;20477;-52
2023/10/20 07:46:51;;;;;;;4.30;0.73;;;;;;;;;;5065562;28;20040;-48
2023/10/20 07:49:16;;;;;;;5.10;0.82;;;;;;;;;;5057501;28;20029;-49
2023/10/20 07:51:42;;;;;;;4.90;1.65;;;;;;;;;;5070128;28;20059;-47
2023/10/20 07:54:10;;;;;;;9.57;1.50;;;;;;;;;;5059078;28;20024;-51
2023/10/20 07:56:38;;;;;;;;;;;;;;;;;;5056838;28;20066;-48
2023/10/20 07:59:04;;;;;;;8.18;1.30;;;;;;;;;;5055534;28;19920;-48
2023/10/20 08:01:29;;;;;;;5.68;1.40;;;;;;;;;;5058315;28;21134;-52
2023/10/20 08:03:55;;;;;;;9.45;1.20;;;;;;;;;;5061834;28;20035;-50
2023/10/20 08:06:20;;;;;;;9.57;1.00;;;;;;;;;;5058945;28;20481;-52
2023/10/20 08:08:46;;;;;;;4.63;1.52;;;;;;;;;;5055309;28;20049;-53
2023/10/20 08:11:11;;;;;;;7.50;1.45;;;;;;;;;;5060786;28;20029;-48
2023/10/20 08:13:39;;;;;;;6.60;1.98;;;;;;;;;;5067045;28;20502;-49
2023/10/20 08:16:09;;;;;;;5.97;1.52;;;;;;;;;;5062833;28;20032;-52
2023/10/20 08:18:35;;;;;;;3.38;0.77;;;;;;;;;;5061981;28;20036;-49
2023/10/20 08:21:07;;;;;;;5.07;1.05;;;;;;;;;;5059115;28;20040;-51
2023/10/20 08:23:33;;;;;;;6.18;1.05;;;;;;;;;;5061827;28;20093;-49
2023/10/20 08:25:58;;;;;;;5.47;1.30;;;;;;;;;;5060515;28;20107;-52
2023/10/20 08:28:25;;;;;;;3.90;1.48;;;;;;;;;;5057571;28;20036;-51
2023/10/20 08:30:51;;;;;;;6.78;0.80;;;;;;;;;;5060588;28;20021;-47
2023/10/20 08:33:16;;;;;;;6.05;1.65;;;;;;;;;;5059316;28;20039;-52
2023/10/20 08:35:41;;;;;;;5.60;1.27;;;;;;;;;;5063888;28;20024;-46
2023/10/20 08:38:07;;;;;;;5.30;0.95;;;;;;;;;;5059820;28;20033;-52
2023/10/20 08:40:33;;;;;;;7.80;2.95;;;;;;;;;;5059257;28;20032;-48
2023/10/20 08:43:02;;;;;;;10.40;1.90;;;;;;;;;;5049956;28;20053;-51
2023/10/20 08:45:31;;;;;;;7.05;1.85;;;;;;;;;;5060488;28;20479;-49
2023/10/20 08:47:59;;;;;;;7.63;1.42;;;;;;;;;;5049297;28;20053;-51
2023/10/20 08:50:25;;;;;;;7.10;1.42;;;;;;;;;;5053051;28;20032;-52
2023/10/20 08:52:51;;;;;;;10.82;1.85;;;;;;;;;;5049205;28;20047;-49
2023/10/20 08:55:16;;;;;;;9.10;1.15;;;;;;;;;;5059155;28;20033;-52
2023/10/20 08:57:42;;;;;;;6.10;0.38;;;;;;;;;;5052571;28;20116;-49
2023/10/20 09:00:16;;;;;;;8.85;1.63;;;;;;;;;;5049346;28;20433;-51
2023/10/20 09:02:41;;;;;;;7.97;2.45;;;;;;;;;;5050110;28;20047;-48
2023/10/20 09:05:08;;;;;;;4.60;0.88;;;;;;;;;;5053459;28;20491;-48
2023/10/20 09:07:34;;;;;;;7.38;1.17;;;;;;;;;;5053759;28;20105;-50
2023/10/20 09:10:00;;;;;;;6.03;1.85;;;;;;;;;;5055474;28;20438;-50
2023/10/20 09:12:31;;;;;;;4.50;0.68;;;;;;;;;;5056702;28;20041;-50
2023/10/20 09:14:57;;;;;;;2.50;0.60;;;;;;;;;;5052182;28;20029;-48
2023/10/20 09:17:23;;;;;;;3.75;0.47;;;;;;;;;;5056101;28;20044;-51
2023/10/20 09:19:48;;;;;;;10.38;0.95;;;;;;;;;;5052532;28;20055;-47
2023/10/20 09:22:14;;;;;;;4.07;0.93;;;;;;;;;;5056765;28;20037;-52
2023/10/20 09:24:41;;;;;;;3.42;0.63;;;;;;;;;;5062935;28;20032;-49
2023/10/20 09:27:07;;;;;;;6.95;0.95;;;;;;;;;;5054555;28;20052;-49
2023/10/20 09:29:34;;;;;;;10.73;1.27;;;;;;;;;;5062197;28;20047;-50
2023/10/20 09:32:00;;;;;;;7.95;0.43;;;;;;;;;;5054511;28;20060;-51
2023/10/20 09:34:25;;;;;;;3.33;2.08;;;;;;;;;;5056412;28;20025;-52
2023/10/20 09:36:52;;;;;;;4.53;0.80;;;;;;;;;;5056688;28;20102;-49
2023/10/20 09:39:27;;;;;;;1.77;1.38;;;;;;;;;;5062639;28;20096;-47
2023/10/20 09:41:54;;;;;;;5.20;1.17;;;;;;;;;;5060213;28;20045;-52
2023/10/20 09:44:32;;;;;;;6.30;1.15;;;;;;;;;;5060020;28;20025;-49
2023/10/20 09:47:12;;;;;;;4.65;1.08;;;;;;;;;;5051507;28;20060;-49
2023/10/20 09:49:40;;;;;;;5.30;2.15;;;;;;;;;;5057648;28;20029;-51
2023/10/20 09:52:05;;;;;;;4.07;1.60;;;;;;;;;;5054733;28;20376;-49
2023/10/20 09:54:33;;;;;;;5.95;1.45;;;;;;;;;;5061864;28;20074;-50
2023/10/20 09:57:00;;;;;;;2.80;0.73;;;;;;;;;;5055478;28;20052;-52
2023/10/20 09:59:27;;;;;;;4.45;0.50;;;;;;;;;;5056767;28;20033;-48
2023/10/20 10:01:54;;;;;;;3.13;1.65;;;;;;;;;;5051353;28;20453;-52
2023/10/20 10:04:28;;;;;;;4.32;2.30;;;;;;;;;;5051029;28;20048;-49
2023/10/20 10:06:55;;;;;;;2.53;0.88;;;;;;;;;;5060681;28;20049;-50
2023/10/20 10:09:21;;;;;;;2.40;0.98;;;;;;;;;;5055777;28;20071;-51
2023/10/20 10:11:47;;;;;;;2.38;0.60;;;;;;;;;;5055409;28;20037;-48
2023/10/20 10:14:21;;;;;;;3.30;0.63;;;;;;;;;;5055395;28;20483;-49
2023/10/20 10:16:54;;;;;;;5.85;1.08;;;;;;;;;;5055515;28;20037;-50
2023/10/20 10:19:25;;;;;;;5.25;1.13;;;;;;;;;;5057719;28;20033;-50
2023/10/20 10:21:53;;;;;;;4.68;1.13;;;;;;;;;;5052402;28;20068;-51
2023/10/20 10:24:20;;;;;;;3.08;1.33;;;;;;;;;;5051669;28;20115;-51
2023/10/20 10:26:50;;;;;;;3.65;0.77;;;;;;;;;;5052285;28;20055;-53
2023/10/20 10:29:15;;;;;;;2.33;1.27;;;;;;;;;;5046034;28;20021;-50
2023/10/20 10:31:41;;;;;;;7.07;0.90;;;;;;;;;;5053857;28;20040;-47
2023/10/20 10:34:07;;;;;;;1.95;0.47;;;;;;;;;;5054262;28;20047;-53
2023/10/20 10:36:46;;;;;;;3.40;0.93;;;;;;;;;;5050118;28;20028;-51
2023/10/20 10:39:29;;;;;;;2.42;0.35;;;;;;;;;;5055631;28;20043;-50
2023/10/20 10:42:04;;;;;;;3.97;1.10;;;;;;;;;;5055207;28;20514;-51
2023/10/20 10:44:36;;;;;;;1.52;0.82;;;;;;;;;;5051708;28;20028;-51
2023/10/20 10:47:04;;;;;;;4.07;2.67;;;;;;;;;;5046571;28;20063;-50
2023/10/20 10:49:31;;;;;;;2.20;0.77;;;;;;;;;;5051383;28;20025;-49
2023/10/20 10:51:57;;;;;;;4.25;0.93;;;;;;;;;;5056375;28;20037;-48
2023/10/20 10:54:24;;;;;;;1.95;0.70;;;;;;;;;;5054055;28;20029;-51
2023/10/20 10:56:49;;;;;;;2.60;1.73;;;;;;;;;;5049832;28;20049;-49
2023/10/20 10:59:15;;;;;;;1.10;1.10;;;;;;;;;;5051382;28;20025;-48
2023/10/20 11:01:41;;;;;;;1.92;0.60;;;;;;;;;;5053746;28;20047;-54
2023/10/20 11:04:11;;;;;;;2.05;0.68;;;;;;;;;;5050124;28;20035;-52
2023/10/20 11:06:38;;;;;;;2.30;2.10;;;;;;;;;;5052976;28;20017;-50
2023/10/20 11:09:10;;;;;;;3.10;0.82;;;;;;;;;;5055884;28;20036;-51
2023/10/20 11:11:45;;;;;;;2.88;1.55;;;;;;;;;;5054972;28;20021;-50
2023/10/20 11:14:17;;;;;;;0.80;0.73;;;;;;;;;;5058574;28;20025;-51
2023/10/20 11:16:43;;;;;;;1.40;0.95;;;;;;;;;;5051760;28;20028;-52
2023/10/20 11:19:12;;;;;;;4.20;0.30;;;;;;;;;;5050524;28;20509;-52
2023/10/20 11:21:44;;;;;;;2.08;0.45;;;;;;;;;;5046910;28;20055;-51
2023/10/20 11:24:09;;;;;;;2.17;0.52;;;;;;;;;;5054944;28;20075;-52
2023/10/20 11:26:35;;;;;;;2.13;0.40;;;;;;;;;;5056065;28;20033;-52
2023/10/20 11:29:07;;;;;;;2.15;1.08;;;;;;;;;;5057298;28;20040;-49
2023/10/20 11:31:33;;;;;;;0.52;0.47;;;;;;;;;;5052671;28;20032;-50
2023/10/20 11:33:59;;;;;;;0.28;0.20;;;;;;;;;;5059523;28;20034;-49
2023/10/20 11:36:24;;;;;;;1.95;1.00;;;;;;;;;;5059324;28;20111;-53
2023/10/20 11:38:49;;;;;;;3.13;2.88;;;;;;;;;;5054186;28;20084;-50
2023/10/20 11:41:15;;;;;;;1.90;0.77;;;;;;;;;;5065183;28;20028;-48
2023/10/20 11:43:40;;;;;;;2.75;0.82;;;;;;;;;;5051800;28;20448;-49
2023/10/20 11:46:10;;;;;;;2.35;0.80;;;;;;;;;;5051529;28;20033;-48
2023/10/20 11:48:35;;;;;;;2.72;1.10;;;;;;;;;;5058639;28;20036;-51
2023/10/20 11:51:01;;;;;;;3.63;0.93;;;;;;;;;;5049501;28;20037;-51
2023/10/20 11:53:26;;;;;;;3.88;1.23;;;;;;;;;;5054858;28;20160;-49
2023/10/20 11:55:52;;;;;;;5.95;1.30;;;;;;;;;;5052050;28;20025;-52
2023/10/20 11:58:18;;;;;;;6.38;1.25;;;;;;;;;;5051851;28;20087;-51
2023/10/20 12:00:44;;;;;;;4.25;0.55;;;;;;;;;;5057589;28;20092;-48
2023/10/20 12:03:09;;;;;;;4.70;1.30;;;;;;;;;;5052519;28;20065;-53
2023/10/20 12:05:36;;;;;;;6.70;2.47;;;;;;;;;;5058402;28;20037;-50
2023/10/20 12:08:04;;;;;;;7.15;0.90;;;;;;;;;;5052702;28;20045;-48
2023/10/20 12:10:31;;;;;;;4.45;1.17;;;;;;;;;;5056111;28;20673;-48
2023/10/20 12:12:56;;;;;;;8.75;2.60;;;;;;;;;;5056836;28;20024;-52
2023/10/20 12:15:22;;;;;;;6.53;1.17;;;;;;;;;;5061028;28;20052;-51
2023/10/20 12:17:47;;;;;;;4.63;1.55;;;;;;;;;;5058071;28;20041;-51
2023/10/20 12:20:13;;;;;;;4.05;0.98;;;;;;;;;;5059907;28;20478;-53
2023/10/20 12:22:38;;;;;;;4.05;1.30;;;;;;;;;;5057771;28;20448;-52
2023/10/20 12:25:05;;;;;;;6.18;1.98;;;;;;;;;;5063740;28;20029;-50
2023/10/20 12:27:31;;;;;;;7.85;1.55;;;;;;;;;;5058564;28;20048;-49
2023/10/20 12:29:56;;;;;;;4.88;0.70;;;;;;;;;;5061850;28;20289;-50
2023/10/20 12:32:22;;;;;;;5.53;1.02;;;;;;;;;;5058359;28;20045;-48
2023/10/20 12:34:47;;;;;;;8.90;1.88;;;;;;;;;;5057962;28;20111;-50
2023/10/20 12:37:12;;;;;;;5.22;0.88;;;;;;;;;;5058567;28;20048;-49
2023/10/20 12:39:39;;;;;;;6.65;1.55;;;;;;;;;;5057037;28;20100;-50
2023/10/20 12:42:05;;;;;;;4.13;1.38;;;;;;;;;;5058066;28;20120;-51
2023/10/20 12:44:33;;;;;;;7.03;1.00;;;;;;;;;;5057889;28;20029;-51
2023/10/20 12:46:59;;;;;;;5.45;1.00;;;;;;;;;;5069539;28;20040;-54
2023/10/20 12:49:24;;;;;;;6.50;1.15;;;;;;;;;;5058462;28;20398;-49
2023/10/20 12:51:50;;;;;;;5.00;1.10;;;;;;;;;;5056741;28;20029;-49
2023/10/20 12:54:16;;;;;;;5.43;1.40;;;;;;;;;;5055473;28;20017;-49
2023/10/20 12:56:41;;;;;;;6.50;1.98;;;;;;;;;;5064385;28;20044;-50
2023/10/20 12:59:06;;;;;;;5.55;1.02;;;;;;;;;;5058208;28;20383;-47
2023/10/20 13:01:32;;;;;;;4.97;1.35;;;;;;;;;;5055832;28;20542;-49
2023/10/20 13:03:57;;;;;;;5.72;1.27;;;;;;;;;;5056662;28;20096;-51
2023/10/20 13:06:25;;;;;;;6.88;1.15;;;;;;;;;;5050973;28;20030;-49
2023/10/20 13:08:51;;;;;;;5.32;1.17;;;;;;;;;;5052197;28;20041;-50
2023/10/20 13:11:16;;;;;;;4.32;0.55;;;;;;;;;;5055237;28;20057;-50
2023/10/20 13:13:42;;;;;;;4.80;1.08;;;;;;;;;;5059815;28;20044;-49
2023/10/20 13:16:08;;;;;;;4.63;1.27;;;;;;;;;;5068418;28;20031;-50
2023/10/20 13:18:33;;;;;;;4.70;1.15;;;;;;;;;;5056767;28;20037;-50
2023/10/20 13:21:05;;;;;;;4.63;0.75;;;;;;;;;;5057228;28;20355;-50
2023/10/20 13:23:31;;;;;;;6.68;2.70;;;;;;;;;;5061356;28;20042;-48
2023/10/20 13:26:01;;;;;;;6.53;1.65;;;;;;;;;;5058166;28;20624;-50
2023/10/20 13:28:26;;;;;;;4.57;1.08;;;;;;;;;;5061020;28;20116;-52
2023/10/20 13:31:09;;;;;;;5.18;1.90;;;;;;;;;;5050949;28;20052;-51
2023/10/20 13:33:35;;;;;;;7.18;2.10;;;;;;;;;;5060089;28;20563;-49
2023/10/20 13:36:07;;;;;;;5.68;1.50;;;;;;;;;;5044404;28;20033;-48
2023/10/20 13:38:35;;;;;;;4.75;1.50;;;;;;;;;;5054607;28;20048;-49
2023/10/20 13:41:02;;;;;;;4.75;1.48;;;;;;;;;;5048083;28;20025;-48
2023/10/20 13:43:28;;;;;;;4.80;1.65;;;;;;;;;;5060131;28;20083;-49
2023/10/20 13:45:53;;;;;;;4.55;1.25;;;;;;;;;;5059078;28;20036;-48
2023/10/20 13:48:19;;;;;;;3.10;1.40;;;;;;;;;;5051437;28;20041;-48
2023/10/20 13:50:44;;;;;;;4.25;1.20;;;;;;;;;;5054270;28;20021;-47
2023/10/20 13:53:10;;;;;;;5.00;0.85;;;;;;;;;;5056809;28;20071;-47
2023/10/20 13:55:38;;;;;;;3.47;0.57;;;;;;;;;;5045616;28;20021;-51
2023/10/20 13:58:04;;;;;;;2.83;0.75;;;;;;;;;;5050571;28;20033;-48
2023/10/20 14:00:30;;;;;;;4.35;1.20;;;;;;;;;;5051229;28;20394;-50
2023/10/20 14:02:55;;;;;;;2.50;0.85;;;;;;;;;;5054522;28;20045;-48
2023/10/20 14:05:23;;;;;;;4.85;1.10;;;;;;;;;;5059563;28;20021;-51
2023/10/20 14:07:49;;;;;;;3.85;1.48;;;;;;;;;;5060605;28;20077;-50
2023/10/20 14:10:14;;;;;;;4.38;1.50;;;;;;;;;;5056674;28;20040;-52
2023/10/20 14:12:40;;;;;;;6.38;0.90;;;;;;;;;;5054126;28;20036;-51
2023/10/20 14:15:06;;;;;;;2.30;0.98;;;;;;;;;;5051371;28;20060;-48
2023/10/20 14:17:32;;;;;;;6.10;1.15;;;;;;;;;;5057224;28;20124;-46
2023/10/20 14:19:58;;;;;;;3.33;1.20;;;;;;;;;;5050563;28;20087;-48
2023/10/20 14:22:23;;;;;;;4.30;0.73;;;;;;;;;;5049067;28;20118;-48
2023/10/20 14:24:48;;;;;;;5.68;1.00;;;;;;;;;;5045867;28;20032;-49
2023/10/20 14:27:14;;;;;;;4.53;0.63;;;;;;;;;;5060118;28;20035;-46
2023/10/20 14:29:40;;;;;;;2.25;0.45;;;;;;;;;;5052836;28;20017;-50
2023/10/20 14:32:05;;;;;;;3.60;0.90;;;;;;;;;;5049968;28;20041;-47
2023/10/20 14:34:32;;;;;;;7.03;1.02;;;;;;;;;;5041619;28;20082;-47
2023/10/20 14:36:57;;;;;;;4.60;0.90;;;;;;;;;;5059206;28;20072;-46
2023/10/20 14:39:24;;;;;;;4.82;0.40;;;;;;;;;;5058224;28;20383;-53
2023/10/20 14:41:49;;;;;;;4.13;0.63;;;;;;;;;;5050957;28;20044;-48
2023/10/20 14:44:15;;;;;;;4.40;0.52;;;;;;;;;;5058277;28;20071;-48
2023/10/20 14:46:43;;;;;;;3.10;0.88;;;;;;;;;;5053696;28;20546;-47
2023/10/20 14:49:08;;;;;;;;;;;;;;;;;;5056351;28;20028;-47
2023/10/20 14:51:34;;;;;;;4.95;0.85;;;;;;;;;;5057023;28;19913;-49
2023/10/20 14:53:59;;;;;;;2.80;0.63;;;;;;;;;;5055507;28;20036;-48
2023/10/20 14:56:25;;;;;;;5.47;1.25;;;;;;;;;;5052431;28;20501;-46
2023/10/20 14:58:51;;;;;;;2.70;0.95;;;;;;;;;;5055765;28;20028;-49
2023/10/20 15:01:16;;;;;;;4.85;0.77;;;;;;;;;;5058992;28;20064;-49
2023/10/20 15:03:42;;;;;;;4.90;0.90;;;;;;;;;;5060755;28;20072;-47
2023/10/20 15:06:07;;;;;;;4.65;0.80;;;;;;;;;;5055892;28;20103;-48
2023/10/20 15:08:33;;;;;;;2.47;1.23;;;;;;;;;;5051848;28;20095;-48
2023/10/20 15:10:59;;;;;;;4.45;1.05;;;;;;;;;;5052612;28;20502;-50
2023/10/20 15:13:25;;;;;;;4.05;1.90;;;;;;;;;;5052199;28;20101;-48